createdAt,value
2018-05-25T00:01:43.069Z,5.10
2018-05-25T00:04:11.951Z,5.23
2018-05-25T00:06:40.836Z,5.63
2018-05-25T00:09:09.735Z,5.53
2018-05-25T00:11:38.612Z,5.50
2018-05-25T00:14:07.517Z,5.57
2018-05-25T00:16:36.425Z,5.87
2018-05-25T00:19:05.304Z,5.20
2018-05-25T00:21:34.186Z,5.53
2018-05-25T00:24:03.033Z,5.20
2018-05-25T00:26:31.933Z,5.80
2018-05-25T00:29:00.788Z,5.60
2018-05-25T00:31:29.664Z,6.20
2018-05-25T00:33:58.612Z,6.10
2018-05-25T00:36:27.497Z,5.80
2018-05-25T00:38:56.353Z,6.33
2018-05-25T00:41:25.225Z,5.73
2018-05-25T00:43:54.101Z,6.47
2018-05-25T00:46:22.997Z,6.13
2018-05-25T00:48:51.872Z,6.07
2018-05-25T00:51:20.761Z,5.77
2018-05-25T00:53:49.613Z,5.73
2018-05-25T00:56:18.489Z,6.47
2018-05-25T00:58:47.341Z,6.40
2018-05-25T01:01:16.221Z,6.33
2018-05-25T01:03:45.218Z,6.30
2018-05-25T01:06:14.108Z,6.40
2018-05-25T01:08:42.995Z,6.43
2018-05-25T01:11:11.958Z,5.93
2018-05-25T01:13:40.848Z,6.47
2018-05-25T01:16:09.740Z,6.13
2018-05-25T01:18:38.616Z,6.00
2018-05-25T01:21:07.493Z,6.80
2018-05-25T01:23:36.641Z,6.33
2018-05-25T01:26:05.517Z,6.30
2018-05-25T01:28:34.372Z,6.10
2018-05-25T01:31:03.252Z,7.00
2018-05-25T01:33:32.181Z,6.53
2018-05-25T01:36:01.033Z,6.30
2018-05-25T01:38:29.930Z,6.37
2018-05-25T01:40:58.816Z,7.20
2018-05-25T01:43:27.697Z,6.77
2018-05-25T01:45:56.881Z,6.50
2018-05-25T01:48:25.873Z,6.63
2018-05-25T01:50:54.741Z,6.30
2018-05-25T01:53:23.617Z,6.50
2018-05-25T01:55:52.741Z,6.43
2018-05-25T01:58:21.616Z,6.43
2018-05-25T02:00:50.525Z,6.47
2018-05-25T02:03:19.388Z,6.30
2018-05-25T02:05:48.238Z,6.53
2018-05-25T02:08:17.088Z,6.53
2018-05-25T02:10:45.940Z,7.03
2018-05-25T02:13:14.840Z,6.53
2018-05-25T02:15:43.728Z,6.87
2018-05-25T02:18:12.589Z,6.30
2018-05-25T02:20:41.489Z,6.83
2018-05-25T02:23:10.557Z,6.50
2018-05-25T02:25:39.554Z,6.50
2018-05-25T02:28:08.432Z,6.73
2018-05-25T02:30:37.992Z,6.23
2018-05-25T02:33:06.868Z,6.10
2018-05-25T02:35:35.720Z,6.77
2018-05-25T02:38:04.576Z,6.50
2018-05-25T02:40:33.435Z,5.90
2018-05-25T02:43:02.299Z,5.90
2018-05-25T02:45:31.159Z,6.53
2018-05-25T02:48:00.072Z,5.77
2018-05-25T02:50:28.977Z,6.53
2018-05-25T02:52:57.886Z,6.67
2018-05-25T02:55:26.776Z,6.93
2018-05-25T02:57:55.652Z,6.47
2018-05-25T03:00:24.851Z,6.67
2018-05-25T03:02:53.846Z,6.70
2018-05-25T03:05:22.764Z,6.37
2018-05-25T03:07:51.613Z,6.67
2018-05-25T03:10:20.473Z,6.00
2018-05-25T03:12:49.347Z,6.23
2018-05-25T03:15:18.237Z,6.40
2018-05-25T03:17:47.124Z,6.07
2018-05-25T03:20:16.022Z,6.10
2018-05-25T03:22:44.901Z,6.00
2018-05-25T03:25:13.761Z,6.30
2018-05-25T03:27:42.612Z,6.33
2018-05-25T03:30:11.467Z,6.07
2018-05-25T03:32:40.345Z,5.77
2018-05-25T03:35:09.241Z,5.37
2018-05-25T03:37:38.094Z,5.90
2018-05-25T03:40:06.979Z,5.77
2018-05-25T03:42:35.857Z,5.50
2018-05-25T03:45:04.896Z,6.10
2018-05-25T03:47:33.747Z,6.10
2018-05-25T03:50:03.019Z,6.13
2018-05-25T03:52:31.921Z,5.77
2018-05-25T03:55:00.872Z,5.83
2018-05-25T03:57:29.752Z,6.17
2018-05-25T04:00:04.490Z,6.27
2018-05-25T04:02:33.391Z,6.30
2018-05-25T04:05:02.244Z,6.80
2018-05-25T04:07:31.137Z,6.53
2018-05-25T04:10:00.004Z,5.87
2018-05-25T04:12:28.849Z,6.97
2018-05-25T04:14:57.720Z,6.57
2018-05-25T04:17:26.688Z,6.53
2018-05-25T04:19:55.549Z,6.60
2018-05-25T04:22:24.453Z,6.27
2018-05-25T04:24:53.368Z,6.40
2018-05-25T04:27:22.406Z,5.83
2018-05-25T04:29:51.398Z,6.50
2018-05-25T04:32:20.387Z,6.93
2018-05-25T04:34:49.396Z,6.17
2018-05-25T04:37:18.252Z,6.30
2018-05-25T04:39:47.159Z,7.00
2018-05-25T04:42:16.032Z,6.83
2018-05-25T04:44:45.056Z,6.83
2018-05-25T04:47:13.954Z,6.83
2018-05-25T04:49:42.861Z,6.20
2018-05-25T04:52:11.737Z,6.33
2018-05-25T04:54:40.600Z,6.57
2018-05-25T04:57:09.513Z,6.10
2018-05-25T04:59:38.711Z,6.70
2018-05-25T05:02:07.700Z,6.23
2018-05-25T05:04:36.600Z,6.63
2018-05-25T05:07:05.479Z,6.87
2018-05-25T05:09:34.333Z,6.60
2018-05-25T05:12:03.248Z,6.50
2018-05-25T05:14:32.131Z,6.27
2018-05-25T05:17:01.009Z,7.13
2018-05-25T05:19:29.887Z,6.30
2018-05-25T05:21:58.760Z,6.30
2018-05-25T05:24:27.701Z,6.00
2018-05-25T05:26:56.579Z,6.43
2018-05-25T05:29:25.469Z,6.30
2018-05-25T05:31:54.380Z,6.27
2018-05-25T05:34:23.294Z,6.37
2018-05-25T05:36:52.187Z,6.63
2018-05-25T05:39:21.383Z,6.17
2018-05-25T05:41:50.237Z,6.47
2018-05-25T05:44:19.129Z,6.17
2018-05-25T05:46:48.905Z,7.13
2018-05-25T05:49:17.763Z,6.70
2018-05-25T05:51:46.631Z,6.93
2018-05-25T05:54:15.511Z,6.93
2018-05-25T05:56:44.368Z,6.63
2018-05-25T05:59:13.213Z,6.30
2018-05-25T06:01:42.080Z,6.30
2018-05-25T06:04:11.323Z,5.93
2018-05-25T06:06:40.315Z,6.20
2018-05-25T06:09:09.185Z,6.80
2018-05-25T06:11:38.061Z,6.07
2018-05-25T06:14:06.918Z,6.70
2018-05-25T06:16:35.789Z,6.30
2018-05-25T06:19:04.666Z,5.80
2018-05-25T06:21:33.636Z,6.03
2018-05-25T06:24:02.513Z,6.57
2018-05-25T06:26:31.386Z,6.03
2018-05-25T06:29:00.267Z,6.30
2018-05-25T06:31:29.285Z,6.67
2018-05-25T06:33:58.250Z,6.00
2018-05-25T06:36:27.107Z,6.70
2018-05-25T06:38:56.310Z,5.77
2018-05-25T06:41:25.304Z,6.07
2018-05-25T06:43:54.154Z,5.50
2018-05-25T06:46:23.084Z,5.77
2018-05-25T06:48:51.977Z,6.13
2018-05-25T06:51:20.857Z,6.43
2018-05-25T06:53:50.068Z,6.20
2018-05-25T06:56:18.954Z,5.80
2018-05-25T06:58:47.850Z,5.90
2018-05-25T07:01:16.776Z,5.57
2018-05-25T07:03:45.637Z,5.53
2018-05-25T07:06:14.492Z,5.90
2018-05-25T07:08:43.389Z,6.23
2018-05-25T07:11:12.240Z,6.00
2018-05-25T07:13:41.098Z,5.80
2018-05-25T07:16:10.113Z,5.47
2018-05-25T07:18:39.113Z,5.97
2018-05-25T07:21:07.976Z,5.23
2018-05-25T07:23:36.953Z,6.50
2018-05-25T07:26:05.833Z,6.03
2018-05-25T07:28:34.721Z,5.63
2018-05-25T07:31:03.613Z,5.67
2018-05-25T07:33:32.493Z,5.80
2018-05-25T07:36:01.648Z,5.73
2018-05-25T07:38:30.525Z,6.07
2018-05-25T07:40:59.416Z,5.73
2018-05-25T07:43:28.268Z,5.77
2018-05-25T07:45:57.141Z,5.40
2018-05-25T07:48:26.095Z,5.57
2018-05-25T07:50:55.040Z,5.67
2018-05-25T07:53:23.936Z,5.73
2018-05-25T07:55:52.798Z,5.67
2018-05-25T07:58:21.863Z,5.67
2018-05-25T08:00:50.771Z,5.40
2018-05-25T08:03:19.625Z,5.10
2018-05-25T08:05:48.517Z,5.47
2018-05-25T08:08:17.981Z,5.50
2018-05-25T08:10:46.860Z,5.53
2018-05-25T08:13:15.829Z,4.83
2018-05-25T08:15:44.717Z,5.17
2018-05-25T08:18:14.068Z,5.33
2018-05-25T08:20:42.980Z,5.07
2018-05-25T08:23:11.869Z,5.33
2018-05-25T08:25:40.787Z,4.85
2018-05-25T08:28:09.644Z,5.40
2018-05-25T08:30:38.497Z,5.13
2018-05-25T08:33:07.466Z,5.20
2018-05-25T08:35:36.316Z,4.80
2018-05-25T08:38:05.172Z,4.70
2018-05-25T08:40:34.068Z,4.73
2018-05-25T08:43:02.998Z,4.57
2018-05-25T08:45:31.869Z,4.37
2018-05-25T08:48:00.741Z,4.80
2018-05-25T08:50:29.716Z,4.53
2018-05-25T08:52:58.605Z,5.37
2018-05-25T08:55:27.797Z,5.03
2018-05-25T08:57:56.669Z,5.10
2018-05-25T09:00:25.555Z,4.77
2018-05-25T09:02:54.413Z,4.20
2018-05-25T09:05:23.266Z,4.50
2018-05-25T09:07:52.151Z,4.20
2018-05-25T09:10:21.040Z,4.80
2018-05-25T09:12:49.936Z,4.60
2018-05-25T09:15:19.135Z,4.63
2018-05-25T09:17:48.113Z,4.13
2018-05-25T09:20:17.019Z,4.60
2018-05-25T09:22:45.927Z,4.50
2018-05-25T09:25:14.785Z,4.30
2018-05-25T09:27:43.657Z,4.50
2018-05-25T09:30:12.512Z,4.40
2018-05-25T09:32:41.393Z,4.03
2018-05-25T09:35:10.249Z,4.63
2018-05-25T09:37:39.105Z,4.30
2018-05-25T09:40:08.086Z,5.03
2018-05-25T09:42:36.938Z,5.03
2018-05-25T09:45:05.849Z,4.23
2018-05-25T09:47:34.715Z,4.60
2018-05-25T09:50:03.819Z,4.87
2018-05-25T09:52:32.713Z,4.60
2018-05-25T09:55:01.613Z,4.77
2018-05-25T09:57:30.520Z,4.50
2018-05-25T09:59:59.795Z,4.10
2018-05-25T10:02:28.700Z,4.17
2018-05-25T10:04:57.713Z,4.23
2018-05-25T10:07:26.600Z,3.70
2018-05-25T10:09:55.497Z,4.00
2018-05-25T10:12:24.458Z,4.60
2018-05-25T10:14:53.452Z,4.17
2018-05-25T10:17:22.364Z,4.37
2018-05-25T10:19:51.212Z,4.17
2018-05-25T10:22:20.256Z,4.37
2018-05-25T10:24:49.105Z,4.00
2018-05-25T10:27:17.977Z,4.40
2018-05-25T10:29:46.877Z,4.33
2018-05-25T10:32:15.733Z,4.47
2018-05-25T10:34:44.589Z,4.70
2018-05-25T10:37:13.528Z,4.40
2018-05-25T10:39:42.772Z,4.70
2018-05-25T10:42:11.645Z,4.50
2018-05-25T10:44:40.541Z,6.07
2018-05-25T10:47:09.398Z,4.80
2018-05-25T10:49:38.289Z,4.70
2018-05-25T10:52:07.257Z,4.70
2018-05-25T10:54:36.133Z,4.80
2018-05-25T10:57:04.985Z,5.20
2018-05-25T10:59:33.933Z,4.50
2018-05-25T11:02:02.810Z,5.00
2018-05-25T11:04:31.726Z,4.97
2018-05-25T11:07:00.784Z,5.40
2018-05-25T11:09:29.637Z,5.87
2018-05-25T11:11:58.713Z,6.20
2018-05-25T11:14:27.644Z,5.27
2018-05-25T11:16:56.744Z,4.43
2018-05-25T11:19:25.625Z,4.93
2018-05-25T11:21:54.528Z,4.90
2018-05-25T11:24:23.380Z,5.53
2018-05-25T11:26:52.230Z,5.33
2018-05-25T11:29:21.110Z,5.50
2018-05-25T11:31:50.112Z,4.80
2018-05-25T11:34:18.980Z,4.83
2018-05-25T11:36:47.889Z,4.83
2018-05-25T11:39:16.768Z,5.23
2018-05-25T11:41:45.725Z,5.13
2018-05-25T11:44:14.633Z,5.27
2018-05-25T11:46:43.569Z,5.50
2018-05-25T11:49:12.429Z,4.93
2018-05-25T11:51:41.327Z,4.83
2018-05-25T11:54:10.208Z,5.07
2018-05-25T11:56:39.093Z,5.10
2018-05-25T11:59:07.981Z,5.03
2018-05-25T12:01:36.836Z,4.97
2018-05-25T12:04:05.726Z,5.03
2018-05-25T12:06:34.618Z,4.80
2018-05-25T12:09:03.522Z,4.50
2018-05-25T12:11:32.560Z,5.20
2018-05-25T12:14:01.433Z,4.87
2018-05-25T12:16:30.291Z,4.93
2018-05-25T12:18:59.390Z,5.33
2018-05-25T12:21:28.920Z,4.47
2018-05-25T12:23:57.803Z,5.10
2018-05-25T12:26:26.689Z,4.60
2018-05-25T12:28:55.580Z,5.90
2018-05-25T12:31:24.465Z,4.83
2018-05-25T12:33:53.345Z,5.03
2018-05-25T12:36:22.221Z,5.03
2018-05-25T12:38:51.076Z,4.97
2018-05-25T12:41:19.943Z,4.97
2018-05-25T12:43:48.876Z,4.80
2018-05-25T12:46:17.777Z,4.80
2018-05-25T12:48:46.770Z,5.00
2018-05-25T12:51:15.624Z,4.80
2018-05-25T12:53:44.506Z,5.40
2018-05-25T12:56:13.414Z,4.93
2018-05-25T12:58:42.293Z,5.37
2018-05-25T13:01:11.156Z,6.10
2018-05-25T13:03:40.029Z,6.93
2018-05-25T13:06:09.116Z,5.90
2018-05-25T13:08:38.008Z,5.43
2018-05-25T13:11:06.920Z,6.07
2018-05-25T13:13:35.792Z,4.80
2018-05-25T13:16:04.783Z,5.47
2018-05-25T13:18:33.677Z,5.57
2018-05-25T13:21:02.545Z,5.17
2018-05-25T13:23:31.566Z,4.73
2018-05-25T13:26:00.442Z,4.80
2018-05-25T13:28:29.288Z,4.70
2018-05-25T13:30:58.240Z,5.20
2018-05-25T13:33:27.099Z,5.40
2018-05-25T13:35:55.989Z,5.50
2018-05-25T13:38:24.850Z,5.07
2018-05-25T13:40:53.729Z,5.77
2018-05-25T13:43:22.725Z,4.90
2018-05-25T13:45:51.909Z,5.43
2018-05-25T13:48:20.804Z,5.47
2018-05-25T13:50:49.663Z,5.30
2018-05-25T13:53:18.521Z,5.13
2018-05-25T13:55:47.401Z,4.70
2018-05-25T13:58:16.272Z,4.97
2018-05-25T14:00:45.143Z,5.20
2018-05-25T14:03:14.042Z,5.03
2018-05-25T14:05:43.071Z,4.93
2018-05-25T14:08:11.953Z,5.43
2018-05-25T14:10:40.813Z,5.63
2018-05-25T14:13:09.732Z,5.80
2018-05-25T14:15:38.733Z,5.50
2018-05-25T14:18:07.615Z,5.90
2018-05-25T14:20:36.469Z,5.50
2018-05-25T14:23:05.472Z,5.83
2018-05-25T14:25:34.371Z,5.45
2018-05-25T14:28:03.255Z,5.80
2018-05-25T14:30:32.113Z,6.23
2018-05-25T14:33:01.140Z,5.40
2018-05-25T14:35:30.033Z,6.03
2018-05-25T14:37:58.864Z,5.67
2018-05-25T14:40:27.733Z,5.83
2018-05-25T14:42:56.608Z,6.03
2018-05-25T14:45:25.537Z,5.70
2018-05-25T14:47:54.433Z,6.57
2018-05-25T14:50:23.336Z,5.63
2018-05-25T14:52:52.341Z,6.03
2018-05-25T14:55:21.221Z,5.90
2018-05-25T14:57:50.097Z,5.70
2018-05-25T15:00:18.970Z,5.53
2018-05-25T15:02:47.842Z,6.10
2018-05-25T15:05:16.823Z,6.27
2018-05-25T15:07:45.819Z,6.17
2018-05-25T15:10:14.715Z,5.72
2018-05-25T15:12:43.772Z,5.97
2018-05-25T15:15:12.721Z,6.20
2018-05-25T15:17:41.733Z,6.07
2018-05-25T15:20:10.630Z,5.40
2018-05-25T15:22:39.498Z,5.55
2018-05-25T15:25:08.401Z,5.80
2018-05-25T15:27:37.262Z,5.60
2018-05-25T15:30:06.183Z,5.37
2018-05-25T15:32:35.177Z,4.80
2018-05-25T15:35:03.985Z,5.10
2018-05-25T15:37:33.036Z,5.28
2018-05-25T15:40:01.889Z,5.47
2018-05-25T15:42:30.764Z,5.53
2018-05-25T15:44:59.645Z,5.10
2018-05-25T15:47:28.528Z,5.20
2018-05-25T15:49:58.117Z,5.43
2018-05-25T15:52:27.072Z,5.20
2018-05-25T15:54:55.940Z,5.20
2018-05-25T15:57:24.817Z,5.10
2018-05-25T15:59:53.688Z,4.93
2018-05-25T16:02:22.624Z,5.40
2018-05-25T16:04:51.463Z,5.40
2018-05-25T16:07:20.360Z,4.60
2018-05-25T16:09:49.233Z,5.37
2018-05-25T16:12:18.099Z,5.13
2018-05-25T16:14:46.993Z,4.90
2018-05-25T16:17:16.041Z,5.10
2018-05-25T16:19:45.029Z,5.17
2018-05-25T16:22:13.901Z,4.80
2018-05-25T16:24:42.755Z,5.10
2018-05-25T16:27:11.786Z,5.20
2018-05-25T16:29:40.770Z,4.70
2018-05-25T16:32:09.764Z,4.87
2018-05-25T16:34:38.668Z,5.20
2018-05-25T16:37:07.752Z,5.20
2018-05-25T16:39:36.613Z,4.87
2018-05-25T16:42:05.489Z,5.10
2018-05-25T16:44:34.394Z,5.60
2018-05-25T16:47:03.293Z,5.00
2018-05-25T16:49:32.165Z,4.73
2018-05-25T16:52:01.233Z,5.07
2018-05-25T16:54:30.399Z,5.33
2018-05-25T16:56:59.253Z,5.93
2018-05-25T16:59:28.125Z,4.87
2018-05-25T17:01:57.078Z,5.03
2018-05-25T17:04:25.932Z,5.70
2018-05-25T17:06:55.168Z,5.53
2018-05-25T17:09:24.017Z,4.60
2018-05-25T17:11:52.867Z,5.00
2018-05-25T17:14:21.741Z,4.87
2018-05-25T17:16:50.590Z,4.83
2018-05-25T17:19:19.444Z,5.20
2018-05-25T17:21:48.340Z,5.20
2018-05-25T17:24:17.545Z,4.87
2018-05-25T17:26:46.446Z,5.20
2018-05-25T17:29:15.329Z,5.33
2018-05-25T17:31:44.391Z,4.90
2018-05-25T17:34:13.282Z,5.60
2018-05-25T17:36:42.149Z,5.00
2018-05-25T17:39:11.009Z,4.70
2018-05-25T17:41:39.901Z,4.63
2018-05-25T17:44:08.969Z,4.70
2018-05-25T17:46:37.820Z,4.70
2018-05-25T17:49:06.717Z,4.57
2018-05-25T17:51:36.585Z,4.80
2018-05-25T17:54:05.640Z,4.50
2018-05-25T17:56:34.553Z,4.40
2018-05-25T17:59:03.433Z,4.70
2018-05-25T18:01:32.313Z,4.27
2018-05-25T18:04:01.193Z,4.40
2018-05-25T18:06:30.065Z,5.37
2018-05-25T18:08:58.916Z,4.70
2018-05-25T18:11:27.848Z,5.03
2018-05-25T18:13:56.945Z,4.57
2018-05-25T18:16:26.053Z,5.00
2018-05-25T18:18:54.938Z,5.27
2018-05-25T18:21:23.837Z,5.20
2018-05-25T18:23:52.777Z,4.73
2018-05-25T18:26:21.637Z,4.37
2018-05-25T18:28:50.524Z,4.93
2018-05-25T18:31:19.382Z,4.77
2018-05-25T18:33:48.266Z,4.40
2018-05-25T18:36:17.562Z,5.10
2018-05-25T18:38:46.533Z,4.63
2018-05-25T18:41:15.416Z,4.80
2018-05-25T18:43:44.274Z,4.67
2018-05-25T18:46:13.555Z,5.27
2018-05-25T18:48:42.545Z,5.23
2018-05-25T18:51:11.432Z,4.67
2018-05-25T18:53:40.370Z,4.97
2018-05-25T18:56:09.238Z,5.07
2018-05-25T18:58:38.115Z,4.77
2018-05-25T19:01:07.014Z,4.40
2018-05-25T19:03:35.885Z,4.97
2018-05-25T19:06:04.744Z,5.13
2018-05-25T19:08:33.621Z,4.90
2018-05-25T19:11:02.486Z,4.90
2018-05-25T19:13:31.364Z,4.80
2018-05-25T19:16:00.289Z,4.70
2018-05-25T19:18:29.143Z,5.10
2018-05-25T19:20:58.025Z,4.77
2018-05-25T19:23:26.966Z,4.70
2018-05-25T19:25:55.955Z,4.90
2018-05-25T19:28:24.857Z,5.40
2018-05-25T19:30:53.758Z,4.87
2018-05-25T19:33:22.632Z,5.07
2018-05-25T19:35:51.518Z,4.97
2018-05-25T19:38:20.407Z,5.37
2018-05-25T19:40:49.284Z,5.07
2018-05-25T19:43:18.297Z,5.30
2018-05-25T19:45:47.193Z,4.90
2018-05-25T19:48:16.237Z,4.80
2018-05-25T19:50:45.197Z,5.10
2018-05-25T19:53:14.296Z,5.00
2018-05-25T19:55:43.148Z,5.40
2018-05-25T19:58:12.079Z,5.23
2018-05-25T20:00:41.054Z,5.60
2018-05-25T20:03:09.900Z,5.40
2018-05-25T20:05:38.797Z,5.33
2018-05-25T20:08:08.059Z,5.60
2018-05-25T20:10:36.924Z,5.43
2018-05-25T20:13:06.048Z,5.23
2018-05-25T20:15:34.925Z,5.40
2018-05-25T20:18:03.845Z,5.47
2018-05-25T20:20:32.902Z,5.40
2018-05-25T20:23:01.804Z,5.67
2018-05-25T20:25:30.685Z,6.07
2018-05-25T20:27:59.723Z,5.33
2018-05-25T20:30:28.660Z,5.60
2018-05-25T20:32:57.509Z,5.60
2018-05-25T20:35:26.426Z,5.90
2018-05-25T20:37:55.305Z,5.57
2018-05-25T20:40:24.156Z,5.67
2018-05-25T20:42:53.004Z,5.53
2018-05-25T20:45:21.884Z,5.23
2018-05-25T20:47:50.737Z,5.60
2018-05-25T20:50:19.621Z,5.60
2018-05-25T20:52:48.504Z,5.47
2018-05-25T20:55:17.353Z,5.50
2018-05-25T20:57:46.201Z,6.17
2018-05-25T21:00:15.085Z,5.70
2018-05-25T21:02:43.980Z,5.53
2018-05-25T21:05:12.861Z,5.53
2018-05-25T21:07:41.821Z,5.80
2018-05-25T21:10:10.700Z,5.10
2018-05-25T21:12:39.588Z,5.40
2018-05-25T21:15:08.568Z,6.33
2018-05-25T21:17:37.445Z,6.13
2018-05-25T21:20:06.301Z,5.63
2018-05-25T21:22:35.314Z,5.77
2018-05-25T21:25:04.173Z,5.63
2018-05-25T21:27:33.041Z,5.53
2018-05-25T21:30:01.968Z,5.97
2018-05-25T21:32:30.964Z,5.90
2018-05-25T21:34:59.854Z,5.87
2018-05-25T21:37:28.893Z,5.50
2018-05-25T21:39:57.768Z,5.97
2018-05-25T21:42:26.692Z,5.60
2018-05-25T21:44:55.589Z,6.20
2018-05-25T21:47:24.474Z,5.83
2018-05-25T21:49:53.325Z,6.27
2018-05-25T21:52:22.224Z,6.40
2018-05-25T21:54:51.078Z,5.63
2018-05-25T21:57:19.977Z,6.07
2018-05-25T21:59:49.021Z,6.00
2018-05-25T22:02:17.963Z,6.17
2018-05-25T22:04:46.962Z,6.70
2018-05-25T22:07:16.028Z,5.90
2018-05-25T22:09:44.892Z,6.60
2018-05-25T22:12:13.792Z,6.07
2018-05-25T22:14:42.672Z,5.93
2018-05-25T22:17:11.569Z,6.20
2018-05-25T22:19:40.732Z,5.93
2018-05-25T22:22:09.665Z,5.90
2018-05-25T22:24:38.583Z,5.87
2018-05-25T22:27:07.465Z,6.30
2018-05-25T22:29:36.590Z,6.30
2018-05-25T22:32:05.493Z,6.50
2018-05-25T22:34:34.357Z,6.90
2018-05-25T22:37:03.209Z,6.50
2018-05-25T22:39:32.222Z,6.80
2018-05-25T22:42:00.869Z,6.30
2018-05-25T22:44:35.609Z,6.33
2018-05-25T22:47:10.306Z,6.30
2018-05-25T22:49:44.916Z,6.33
2018-05-25T22:52:15.492Z,6.40
2018-05-25T22:54:44.415Z,5.90
2018-05-25T22:57:13.312Z,6.10
2018-05-25T22:59:42.190Z,5.87
2018-05-25T23:02:11.322Z,6.13
2018-05-25T23:04:40.628Z,5.97
2018-05-25T23:07:09.476Z,5.97
2018-05-25T23:09:38.327Z,5.83
2018-05-25T23:12:07.245Z,6.20
2018-05-25T23:14:36.117Z,5.67
2018-05-25T23:17:04.966Z,5.90
2018-05-25T23:19:33.876Z,5.87
2018-05-25T23:22:02.769Z,5.40
2018-05-25T23:24:31.967Z,5.67
2018-05-25T23:27:00.869Z,5.80
2018-05-25T23:29:29.724Z,5.70
2018-05-25T23:31:58.585Z,5.40
2018-05-25T23:34:27.898Z,5.83
2018-05-25T23:36:56.909Z,6.07
2018-05-25T23:39:25.893Z,6.20
2018-05-25T23:41:55.542Z,6.30
2018-05-25T23:44:24.531Z,6.13
2018-05-25T23:46:53.421Z,5.63
2018-05-25T23:49:22.486Z,5.43
2018-05-25T23:51:51.851Z,5.53
2018-05-25T23:54:20.713Z,5.70
2018-05-25T23:56:49.592Z,5.90
2018-05-25T23:59:18.468Z,5.47
